Hebron, Nebraska
Current Conditions -  °F | °C
As of 9:35 PM on Monday 22 Dec 2014 (Local Time) from KHJH Reporting Station
Clear Clear  
Wind Chill: 31°   Ceiling: Unl
Heat Index: 37°   Visibility: 10mi
Dew Point: 30°   Wind: 8mph
Humidity: 77%   Direction: 290°WNW
Pressure: 29.54"   Gusts: NA
Location:  40.17°N, 97.59°W
Report Text: KHJH 230335Z AUTO 29007KT 10SM CLR 03/M01 A2954 RMK AO2 T00271009
Loading
Personal Weather Stations






























Interactive Weather Map New forecast layout! Learn more

10-Day Weather Forecast

Advertisements
Track Severe Weather on mobile